Weather at Federal Border Guard No. 19 Helipad

Public forecast

Using degrees Celsius for public forecast. Weather courtesy of forecast.io.

Closest aviation weather report (METAR) to Federal Border Guard No. 19 Helipad

Closest report is Hatay Airport, 15.8 nm (29.2 km) W.

2024/04/24 15:50 (retrieved 56 minutes ago)

LTDA 241550Z 36003KT CAVOK 31/15 Q1010 NOSIG

Closest aviation forecast (TAF) to Federal Border Guard No. 19 Helipad

Forecast is more than 6 hours old.

Closest forecast is Aleppo International Airport, 31.6 nm (58.5 km) ESE.

2024/04/24 06:00 (retrieved 11 hours ago)

TAF OSAP 240445Z 2406/2506 12008KT 9999 FEW030 BECMG 2414/2416 VRB03KT CAVOK